Crowheart, Wyoming
Current Conditions -  °F | °C
As of 8:53 AM on Sunday 21 Dec 2014 (Local Time) from KRIW Reporting Station
Clear Clear  
Wind Chill: 16°   Ceiling: Unl
Heat Index: 25°   Visibility: 10mi
Dew Point: 19°   Wind: 9mph
Humidity: 78%   Direction: 290°WNW
Pressure: 29.59"   Gusts: NA
Location:  43.31°N, 109.2°W
Report Text: KRIW 211553Z AUTO 29008KT 10SM CLR M04/M07 A2959 RMK AO2 SLP068 T10391072
Loading
Personal Weather Stations






























Interactive Weather Map New forecast layout! Learn more

10-Day Weather Forecast

Advertisements
Track Severe Weather on mobile